Time;durP1;ratioP1;P1;durP2;ratioP2;P2;SDS_P1;SDS_P2;PMS_P1;PMS_P2;Temp;Humidity;BMP_temperature;BMP_pressure;BME280_temperature;BME280_humidity;BME280_pressure;Samples;Min_cycle;Max_cycle;Signal;HPM_P1;HPM_P2
2022/07/26 00:00:11;;;;;;;5.65;2.50;;;;;;;16.21;65.96;100260.03;5021501;28;20045;-44
2022/07/26 00:02:39;;;;;;;2.95;2.40;;;;;;;16.16;66.10;100265.38;5021432;28;20041;-47
2022/07/26 00:05:15;;;;;;;5.53;1.58;;;;;;;16.12;66.15;100265.47;5020953;28;20049;-46
2022/07/26 00:07:41;;;;;;;4.80;2.05;;;;;;;16.10;66.31;100257.66;5023189;28;20057;-44
2022/07/26 00:10:09;;;;;;;4.47;2.03;;;;;;;16.11;66.62;100264.59;5035609;28;20112;-44
2022/07/26 00:12:36;;;;;;;4.30;1.73;;;;;;;16.10;65.89;100275.97;5025548;28;20041;-43
2022/07/26 00:15:06;;;;;;;2.20;1.30;;;;;;;16.10;66.31;100278.56;5019605;28;20057;-44
2022/07/26 00:17:33;;;;;;;5.68;2.10;;;;;;;16.08;66.94;100284.72;5025720;28;20053;-44
2022/07/26 00:20:00;;;;;;;5.00;1.90;;;;;;;16.06;67.31;100276.91;5017355;28;20111;-44
2022/07/26 00:22:34;;;;;;;4.80;2.42;;;;;;;16.06;67.68;100276.91;5026150;28;20044;-44
2022/07/26 00:25:03;;;;;;;3.08;1.58;;;;;;;16.07;67.06;100283.84;5024497;28;20362;-45
2022/07/26 00:27:31;;;;;;;3.70;2.05;;;;;;;16.05;66.64;100280.44;5016885;28;20493;-44
2022/07/26 00:29:58;;;;;;;2.83;2.03;;;;;;;16.04;67.33;100278.69;5019683;28;20049;-45
2022/07/26 00:32:24;;;;;;;5.13;2.17;;;;;;;16.04;67.08;100281.31;5018088;28;20092;-43
2022/07/26 00:34:51;;;;;;;5.70;2.00;;;;;;;16.03;67.58;100284.81;5020491;28;20496;-41
2022/07/26 00:37:19;;;;;;;5.03;2.45;;;;;;;16.03;67.15;100295.28;5021627;28;20045;-42
2022/07/26 00:39:47;;;;;;;4.18;1.80;;;;;;;16.01;67.71;100299.69;5022394;28;20062;-42
2022/07/26 00:42:14;;;;;;;3.58;1.80;;;;;;;16.01;67.76;100297.06;5020369;28;20111;-46
2022/07/26 00:44:43;;;;;;;2.92;1.95;;;;;;;16.01;68.18;100299.69;5019320;28;20429;-46
2022/07/26 00:47:10;;;;;;;3.78;2.20;;;;;;;16.02;67.71;100296.16;5021991;28;20050;-41
2022/07/26 00:49:37;;;;;;;6.63;2.15;;;;;;;16.04;67.81;100290.00;5019785;28;20490;-44
2022/07/26 00:52:05;;;;;;;4.90;1.83;;;;;;;16.08;67.56;100295.19;5019370;28;20053;-44
2022/07/26 00:54:32;;;;;;;4.03;2.17;;;;;;;16.09;67.78;100297.75;5018006;28;20045;-43
2022/07/26 00:56:59;;;;;;;4.10;2.13;;;;;;;16.11;68.13;100300.34;5019742;28;20053;-42
2022/07/26 00:59:26;;;;;;;3.42;2.13;;;;;;;16.11;67.90;100306.41;5023496;28;20054;-45
2022/07/26 01:01:53;;;;;;;3.10;2.05;;;;;;;16.11;67.88;100303.78;5019299;28;20706;-42
2022/07/26 01:04:20;;;;;;;5.38;2.30;;;;;;;16.11;68.37;100301.19;5019188;28;20050;-47
2022/07/26 01:06:48;;;;;;;4.53;2.15;;;;;;;16.15;67.64;100308.06;5021750;28;20045;-44
2022/07/26 01:09:15;;;;;;;3.83;2.30;;;;;;;16.16;68.17;100301.97;5023845;28;20058;-45
2022/07/26 01:11:42;;;;;;;3.63;2.47;;;;;;;16.17;67.62;100303.69;5019458;28;20049;-44
2022/07/26 01:14:09;;;;;;;4.07;2.15;;;;;;;16.19;67.59;100307.09;5025154;28;20064;-44
2022/07/26 01:16:36;;;;;;;4.90;2.75;;;;;;;16.22;67.83;100308.81;5025599;28;20073;-48
2022/07/26 01:19:03;;;;;;;3.72;2.72;;;;;;;16.25;67.86;100308.72;5024852;28;20068;-42
2022/07/26 01:21:31;;;;;;;2.95;2.22;;;;;;;16.29;67.62;100307.78;5023232;28;20046;-47
2022/07/26 01:23:58;;;;;;;4.32;2.17;;;;;;;16.30;67.94;100304.25;5027105;28;20054;-41
2022/07/26 01:26:24;;;;;;;5.72;2.53;;;;;;;16.31;67.83;100308.59;5029063;28;20099;-45
2022/07/26 01:28:51;;;;;;;3.92;2.58;;;;;;;16.31;67.20;100312.94;5029032;28;20524;-44
2022/07/26 01:31:18;;;;;;;5.30;2.58;;;;;;;16.31;68.21;100319.03;5021295;28;20042;-46
2022/07/26 01:33:45;;;;;;;5.22;2.55;;;;;;;16.32;68.05;100306.84;5023028;28;20045;-43
2022/07/26 01:36:11;;;;;;;5.05;2.17;;;;;;;16.31;67.90;100305.09;5027545;28;20057;-44
2022/07/26 01:38:39;;;;;;;5.28;2.38;;;;;;;16.31;68.21;100307.72;5024634;28;20625;-44
2022/07/26 01:41:06;;;;;;;5.50;3.75;;;;;;;16.27;67.98;100306.06;5022103;28;20045;-43
2022/07/26 01:43:33;;;;;;;5.10;2.67;;;;;;;16.25;67.99;100300.88;5023073;28;20041;-45
2022/07/26 01:46:00;;;;;;;4.97;2.63;;;;;;;16.25;68.65;100302.66;5038188;28;20096;-43
2022/07/26 01:48:27;;;;;;;4.93;2.42;;;;;;;16.24;67.92;100307.00;5021631;28;20551;-42
2022/07/26 01:50:55;;;;;;;5.25;2.63;;;;;;;16.25;67.89;100300.03;5024592;28;20049;-42
2022/07/26 01:53:22;;;;;;;5.93;2.20;;;;;;;16.25;67.74;100305.25;5023971;28;20489;-42
2022/07/26 01:55:49;;;;;;;7.40;2.60;;;;;;;16.23;68.31;100312.25;5023929;28;20049;-43
2022/07/26 01:58:16;;;;;;;6.70;2.47;;;;;;;16.22;68.36;100310.56;5026974;28;20456;-44
2022/07/26 02:00:43;;;;;;;6.75;2.95;;;;;;;16.22;68.18;100318.38;5023021;28;20049;-45
2022/07/26 02:03:10;;;;;;;5.13;3.45;;;;;;;16.21;67.97;100320.13;5028629;28;20050;-42
2022/07/26 02:05:37;;;;;;;6.18;2.10;;;;;;;16.22;68.40;100321.00;5024375;28;20406;-42
2022/07/26 02:08:03;;;;;;;4.30;2.63;;;;;;;16.22;67.80;100313.16;5022480;28;20053;-42
2022/07/26 02:13:17;;;;;;;6.30;2.83;;;;;;;16.22;68.15;100307.94;5034991;28;20045;-46
2022/07/26 02:15:44;;;;;;;7.18;2.58;;;;;;;16.21;68.05;100316.69;5025108;28;20103;-44
2022/07/26 02:18:11;;;;;;;5.57;2.85;;;;;;;16.20;68.26;100307.97;5025200;28;20064;-46
2022/07/26 02:20:37;;;;;;;4.22;2.70;;;;;;;16.18;68.45;100317.63;5025586;28;20052;-43
2022/07/26 02:23:04;;;;;;;4.53;2.33;;;;;;;16.14;68.55;100319.41;5019689;28;20053;-43
2022/07/26 02:25:31;;;;;;;9.30;3.13;;;;;;;16.12;67.91;100320.34;5027971;28;20117;-44
2022/07/26 02:28:00;;;;;;;4.55;3.20;;;;;;;16.10;68.28;100320.38;5015634;28;20440;-43
2022/07/26 02:30:27;;;;;;;5.13;2.58;;;;;;;16.09;68.37;100323.00;5018950;28;20052;-43
2022/07/26 02:32:54;;;;;;;6.47;2.55;;;;;;;16.07;68.13;100333.50;5019616;28;20041;-44
2022/07/26 02:35:21;;;;;;;4.47;2.55;;;;;;;16.04;68.46;100336.16;5022682;28;20050;-43
2022/07/26 02:37:47;;;;;;;8.00;2.42;;;;;;;16.03;68.44;100334.47;5020161;28;20049;-45
2022/07/26 02:40:14;;;;;;;4.10;2.65;;;;;;;15.99;68.28;100332.81;5026560;28;20080;-44
2022/07/26 02:42:45;;;;;;;3.75;1.63;;;;;;;15.96;68.19;100335.47;5020557;28;20386;-44
2022/07/26 02:45:11;;;;;;;6.07;2.47;;;;;;;15.94;68.53;100333.72;5019474;28;20046;-53
2022/07/26 02:47:47;;;;;;;6.30;3.15;;;;;;;15.92;68.35;100337.25;5020951;28;20052;-44
2022/07/26 02:50:17;;;;;;;5.47;2.90;;;;;;;15.93;68.01;100339.84;5021765;28;20045;-45
2022/07/26 02:52:46;;;;;;;5.85;2.33;;;;;;;15.91;68.48;100344.22;5024187;28;20052;-44
2022/07/26 02:55:15;;;;;;;3.85;2.25;;;;;;;15.89;68.16;100340.81;5020247;28;20049;-43
2022/07/26 02:57:42;;;;;;;6.13;2.92;;;;;;;15.86;68.23;100343.47;5035310;28;20045;-46
2022/07/26 03:00:15;;;;;;;4.25;2.63;;;;;;;15.84;68.21;100340.00;5023026;28;20045;-46
2022/07/26 03:02:42;;;;;;;;;;;;;;;15.61;68.43;100343.97;5024935;28;20045;-43
2022/07/26 03:05:09;;;;;;;4.45;2.15;;;;;;;15.75;67.86;100348.03;5022109;28;19928;-43
2022/07/26 03:07:36;;;;;;;6.00;2.35;;;;;;;15.73;67.82;100347.19;5034851;28;20042;-48
2022/07/26 03:10:04;;;;;;;4.78;2.67;;;;;;;15.73;68.30;100347.19;5026009;28;20054;-43
2022/07/26 03:12:30;;;;;;;7.68;3.15;;;;;;;15.71;68.30;100349.00;5026635;28;20102;-43
2022/07/26 03:14:57;;;;;;;7.82;2.72;;;;;;;15.71;68.50;100351.59;5024277;28;20060;-43
2022/07/26 03:17:24;;;;;;;6.55;3.00;;;;;;;15.68;68.36;100355.97;5023605;28;20079;-42
2022/07/26 03:19:51;;;;;;;6.40;2.28;;;;;;;15.68;68.63;100350.75;5024087;28;20548;-44
2022/07/26 03:22:17;;;;;;;3.90;2.08;;;;;;;15.68;68.41;100350.75;5023933;28;20505;-44
2022/07/26 03:24:44;;;;;;;3.83;2.45;;;;;;;15.68;69.06;100350.75;5023742;28;20172;-44
2022/07/26 03:27:11;;;;;;;6.20;2.70;;;;;;;15.71;68.71;100354.22;5021638;28;20053;-43
2022/07/26 03:29:37;;;;;;;6.68;2.72;;;;;;;15.73;68.68;100361.13;5023196;28;20053;-45
2022/07/26 03:32:04;;;;;;;6.03;3.10;;;;;;;15.75;68.84;100355.88;5022822;28;20076;-42
2022/07/26 03:34:31;;;;;;;4.78;2.83;;;;;;;15.76;68.83;100357.59;5024202;28;20059;-44
2022/07/26 03:36:58;;;;;;;5.10;2.75;;;;;;;15.75;68.71;100364.59;5020156;28;20556;-42
2022/07/26 03:39:25;;;;;;;5.75;2.47;;;;;;;15.75;68.83;100371.56;5023003;28;20050;-44
2022/07/26 03:41:51;;;;;;;6.35;2.97;;;;;;;15.75;68.96;100371.56;5019418;28;20582;-43
2022/07/26 03:44:18;;;;;;;4.15;1.63;;;;;;;15.76;68.71;100378.47;5024969;28;20378;-45
2022/07/26 03:46:45;;;;;;;5.45;3.17;;;;;;;15.77;68.83;100385.44;5024941;28;20053;-45
2022/07/26 03:49:11;;;;;;;6.40;2.90;;;;;;;15.79;68.55;100378.44;5018346;28;20050;-43
2022/07/26 03:51:42;;;;;;;6.47;3.08;;;;;;;15.80;68.95;100380.16;5030308;28;20049;-44
2022/07/26 03:54:09;;;;;;;6.07;3.42;;;;;;;15.81;68.75;100382.72;5021796;28;20485;-46
2022/07/26 03:56:37;;;;;;;5.57;3.30;;;;;;;15.83;68.60;100387.94;5029071;28;20053;-45
2022/07/26 03:59:06;;;;;;;4.72;2.47;;;;;;;15.86;68.87;100380.03;5020796;28;20079;-42
2022/07/26 04:01:34;;;;;;;4.60;3.00;;;;;;;15.85;68.95;100388.78;5037353;28;20069;-44
2022/07/26 04:04:02;;;;;;;5.57;3.13;;;;;;;15.87;68.92;100381.75;5021747;28;20060;-44
2022/07/26 04:06:28;;;;;;;4.65;2.80;;;;;;;15.88;68.53;100393.91;5023690;28;20052;-46
2022/07/26 04:08:55;;;;;;;5.30;3.03;;;;;;;15.89;68.74;100400.88;5020079;28;20053;-43
2022/07/26 04:11:22;;;;;;;5.70;2.40;;;;;;;15.89;68.32;100395.66;5025510;28;20049;-40
2022/07/26 04:13:54;;;;;;;4.55;2.70;;;;;;;15.90;69.12;100392.16;5023268;28;20050;-42
2022/07/26 04:16:21;;;;;;;5.35;2.55;;;;;;;15.92;68.71;100395.59;5021685;28;20099;-41
2022/07/26 04:18:47;;;;;;;4.53;3.65;;;;;;;15.94;68.20;100396.41;5024238;28;20137;-49
2022/07/26 04:21:14;;;;;;;6.32;2.63;;;;;;;15.96;68.54;100395.56;5020851;28;20049;-43
2022/07/26 04:23:41;;;;;;;3.90;2.00;;;;;;;15.96;68.20;100399.03;5021478;28;20974;-43
2022/07/26 04:26:13;;;;;;;5.18;1.33;;;;;;;15.96;68.65;100395.56;5020553;28;21142;-42
2022/07/26 04:28:40;;;;;;;7.22;2.10;;;;;;;15.99;68.72;100401.59;5018031;28;20065;-42
2022/07/26 04:31:08;;;;;;;3.83;2.58;;;;;;;16.00;68.92;100397.22;5017636;28;20686;-43
2022/07/26 04:33:35;;;;;;;6.28;2.15;;;;;;;16.02;68.21;100400.66;5021541;28;20049;-42
2022/07/26 04:36:02;;;;;;;3.92;2.53;;;;;;;16.01;68.10;100406.78;5020332;28;20050;-43
2022/07/26 04:38:28;;;;;;;6.50;2.38;;;;;;;16.03;68.05;100413.69;5015241;28;20053;-42
2022/07/26 04:40:56;;;;;;;6.93;1.90;;;;;;;16.04;68.13;100425.00;5019835;28;20457;-46
2022/07/26 04:43:24;;;;;;;5.95;2.88;;;;;;;16.05;68.11;100426.75;5022048;28;20472;-44
2022/07/26 04:45:51;;;;;;;3.08;2.25;;;;;;;16.05;68.29;100426.75;5011581;28;20046;-44
2022/07/26 04:48:18;;;;;;;6.38;3.00;;;;;;;16.07;68.23;100430.16;5018859;28;20045;-47
2022/07/26 04:50:45;;;;;;;7.63;3.03;;;;;;;16.09;68.45;100428.41;5024849;28;20095;-44
2022/07/26 04:53:12;;;;;;;6.97;3.05;;;;;;;16.12;68.52;100436.19;5024822;28;20041;-43
2022/07/26 04:55:39;;;;;;;4.75;2.80;;;;;;;16.14;68.54;100441.38;5029556;28;20050;-46
2022/07/26 04:58:06;;;;;;;4.78;3.05;;;;;;;16.16;68.30;100424.78;5025357;28;20053;-42
2022/07/26 05:00:32;;;;;;;4.70;2.72;;;;;;;16.19;68.50;100435.13;5023625;28;20099;-44
2022/07/26 05:03:12;;;;;;;8.13;2.97;;;;;;;16.21;68.56;100434.28;5025691;28;20041;-45
2022/07/26 05:05:39;;;;;;;7.13;2.88;;;;;;;16.24;68.75;100437.66;5022619;28;20060;-45
2022/07/26 05:08:05;;;;;;;3.95;3.20;;;;;;;16.25;68.27;100433.31;5024668;28;20041;-44
2022/07/26 05:10:34;;;;;;;8.10;3.08;;;;;;;16.26;68.31;100435.03;5027149;28;20115;-44
2022/07/26 05:13:03;;;;;;;5.15;2.47;;;;;;;16.28;68.53;100443.72;5021844;28;20111;-42
2022/07/26 05:15:31;;;;;;;5.82;2.97;;;;;;;16.30;68.67;100444.53;5041937;28;20041;-43
2022/07/26 05:18:03;;;;;;;9.05;2.58;;;;;;;16.30;68.13;100447.13;5042552;28;20394;-42
2022/07/26 05:20:33;;;;;;;7.40;3.05;;;;;;;16.28;68.01;100444.56;5047799;28;20103;-43
2022/07/26 05:22:59;;;;;;;7.35;3.70;;;;;;;16.29;68.17;100445.44;5050411;28;20051;-42
2022/07/26 05:25:26;;;;;;;6.18;2.42;;;;;;;16.29;68.20;100442.81;5045238;28;20045;-42
2022/07/26 05:27:53;;;;;;;3.60;2.65;;;;;;;16.31;68.02;100443.63;5042150;28;20045;-43
2022/07/26 05:30:20;;;;;;;3.72;1.40;;;;;;;16.32;67.99;100455.84;5042920;28;20396;-42
2022/07/26 05:32:46;;;;;;;5.07;2.88;;;;;;;16.35;67.57;100445.28;5046385;28;20045;-45
2022/07/26 05:35:13;;;;;;;6.32;2.65;;;;;;;16.37;67.55;100451.34;5043972;28;20095;-46
2022/07/26 05:37:40;;;;;;;4.68;2.00;;;;;;;16.38;67.80;100452.22;5046023;28;20538;-45
2022/07/26 05:40:07;;;;;;;7.38;2.85;;;;;;;16.39;67.56;100452.19;5048234;28;20045;-46
2022/07/26 05:42:33;;;;;;;5.45;2.17;;;;;;;16.42;67.43;100452.13;5045428;28;20469;-43
2022/07/26 05:45:00;;;;;;;7.45;2.70;;;;;;;16.47;67.48;100448.53;5043062;28;20055;-46
2022/07/26 05:47:28;;;;;;;6.30;2.28;;;;;;;16.52;67.65;100447.56;5045158;28;20567;-48
2022/07/26 05:49:55;;;;;;;4.15;1.90;;;;;;;16.56;67.31;100458.81;5047972;28;20048;-43
2022/07/26 05:52:22;;;;;;;5.80;2.35;;;;;;;16.57;67.67;100455.31;5045830;28;20124;-45
2022/07/26 05:54:49;;;;;;;8.65;2.35;;;;;;;16.61;67.33;100456.97;5046338;28;20099;-43
2022/07/26 05:57:15;;;;;;;6.28;1.90;;;;;;;16.65;67.27;100469.06;5047772;28;20539;-43
2022/07/26 05:59:42;;;;;;;6.93;2.10;;;;;;;16.69;66.81;100469.88;5041836;28;20120;-46
2022/07/26 06:02:09;;;;;;;4.13;1.75;;;;;;;16.75;67.25;100474.13;5044350;28;20362;-46
2022/07/26 06:04:36;;;;;;;2.65;1.75;;;;;;;16.77;66.54;100467.09;5021456;28;20137;-43
2022/07/26 06:07:02;;;;;;;4.90;1.63;;;;;;;16.80;66.80;100472.25;5021984;28;20047;-47
2022/07/26 06:09:29;;;;;;;4.25;1.65;;;;;;;16.81;66.36;100476.59;5018231;28;20049;-46
2022/07/26 06:11:56;;;;;;;6.25;2.00;;;;;;;16.82;66.08;100481.78;5024162;28;20131;-43
2022/07/26 06:14:23;;;;;;;8.00;2.10;;;;;;;16.81;66.38;100473.97;5018377;28;20053;-44
2022/07/26 06:16:50;;;;;;;6.97;1.88;;;;;;;16.84;66.16;100481.75;5020814;28;20068;-45
2022/07/26 06:19:17;;;;;;;5.82;2.30;;;;;;;16.86;65.89;100480.00;5029395;28;20085;-43
2022/07/26 06:21:44;;;;;;;6.22;1.85;;;;;;;16.88;66.02;100486.03;5024599;28;20053;-44
2022/07/26 06:24:12;;;;;;;8.68;1.88;;;;;;;16.91;66.11;100485.97;5022694;28;20130;-44
2022/07/26 06:26:39;;;;;;;8.15;1.83;;;;;;;16.95;65.99;100482.38;5027053;28;20098;-44
2022/07/26 06:29:06;;;;;;;4.90;1.70;;;;;;;16.98;65.15;100486.69;5020110;28;21294;-43
2022/07/26 06:31:32;;;;;;;3.72;1.77;;;;;;;17.03;65.48;100491.81;5042708;28;20057;-43
2022/07/26 06:33:59;;;;;;;4.38;1.60;;;;;;;17.08;65.89;100497.84;5027618;28;20133;-44
2022/07/26 06:36:26;;;;;;;7.60;1.95;;;;;;;17.13;65.13;100495.13;5022033;28;20053;-46
2022/07/26 06:38:56;;;;;;;7.20;2.20;;;;;;;17.14;65.00;100491.59;5022180;28;20048;-46
2022/07/26 06:41:23;;;;;;;6.10;2.03;;;;;;;17.17;65.26;100497.63;5029134;28;20051;-44
2022/07/26 06:43:50;;;;;;;5.68;1.08;;;;;;;17.18;65.28;100499.34;5024005;28;20429;-46
2022/07/26 06:46:18;;;;;;;6.82;1.67;;;;;;;17.16;64.51;100498.50;5025616;28;20053;-44
2022/07/26 06:48:45;;;;;;;5.55;2.65;;;;;;;17.15;64.79;100499.41;5026964;28;20099;-47
2022/07/26 06:51:13;;;;;;;4.63;2.45;;;;;;;17.19;64.56;100511.53;5026650;28;20050;-47
2022/07/26 06:53:40;;;;;;;6.60;1.90;;;;;;;17.26;64.55;100511.41;5023281;28;20057;-44
2022/07/26 06:56:07;;;;;;;4.43;2.13;;;;;;;17.34;64.88;100514.69;5021923;28;20076;-43
2022/07/26 06:58:33;;;;;;;5.28;2.05;;;;;;;17.38;63.66;100520.72;5021222;28;20049;-43
2022/07/26 07:01:00;;;;;;;4.63;1.60;;;;;;;17.39;64.28;100518.06;5025491;28;20676;-45
2022/07/26 07:03:27;;;;;;;4.63;1.73;;;;;;;17.42;63.87;100528.47;5023850;28;21478;-45
2022/07/26 07:05:53;;;;;;;4.70;2.05;;;;;;;17.44;64.51;100531.94;5023223;28;20100;-44
2022/07/26 07:08:21;;;;;;;3.35;1.98;;;;;;;17.43;63.54;100530.19;5026492;28;20049;-47
2022/07/26 07:10:48;;;;;;;6.55;1.20;;;;;;;17.51;64.25;100531.75;5041434;28;20401;-43
2022/07/26 07:13:16;;;;;;;4.97;1.77;;;;;;;17.63;63.14;100541.94;5019643;28;20049;-43
2022/07/26 07:15:43;;;;;;;5.63;2.10;;;;;;;17.77;63.28;100544.25;5022410;28;20050;-48
2022/07/26 07:18:10;;;;;;;4.07;1.48;;;;;;;17.91;63.10;100545.63;5021054;28;20119;-46
2022/07/26 07:20:39;;;;;;;5.35;1.23;;;;;;;18.04;62.26;100546.19;5025692;28;22105;-47
2022/07/26 07:23:06;;;;;;;11.30;2.38;;;;;;;18.16;61.96;100545.03;5028029;28;20045;-47
2022/07/26 07:25:33;;;;;;;3.70;2.00;;;;;;;18.22;62.36;100545.75;5015018;28;20100;-46
2022/07/26 07:28:00;;;;;;;5.82;1.88;;;;;;;18.31;61.85;100551.63;5014411;28;20103;-44
2022/07/26 07:30:27;;;;;;;7.00;1.83;;;;;;;18.36;61.00;100547.13;5020575;28;20057;-43
2022/07/26 07:32:54;;;;;;;7.65;1.98;;;;;;;18.41;61.06;100560.94;5038293;28;20515;-44
2022/07/26 07:35:22;;;;;;;8.48;2.70;;;;;;;18.58;61.32;100564.88;5018673;28;20718;-44
2022/07/26 07:37:49;;;;;;;6.30;1.95;;;;;;;18.71;60.42;100563.63;5024075;28;20045;-44
2022/07/26 07:40:18;;;;;;;3.63;1.73;;;;;;;18.77;60.02;100556.50;5026902;28;20604;-44
2022/07/26 07:42:45;;;;;;;2.45;1.35;;;;;;;18.82;59.11;100562.47;5021852;28;20060;-43
2022/07/26 07:45:11;;;;;;;4.65;2.33;;;;;;;18.83;58.80;100566.81;5020242;28;20057;-46
2022/07/26 07:47:38;;;;;;;4.97;1.50;;;;;;;18.93;58.84;100563.00;5020471;28;20045;-45
2022/07/26 07:50:06;;;;;;;4.22;1.05;;;;;;;19.09;58.59;100559.97;5015424;28;20052;-45
2022/07/26 07:52:32;;;;;;;5.15;2.08;;;;;;;19.23;57.86;100555.16;5022074;28;20049;-44
2022/07/26 07:54:59;;;;;;;9.55;1.63;;;;;;;19.41;57.97;100558.09;5021822;28;20046;-44
2022/07/26 07:57:45;;;;;;;3.90;1.77;;;;;;;19.62;56.91;100553.09;5023120;28;20081;-45
2022/07/26 08:00:14;;;;;;;2.95;1.85;;;;;;;19.76;56.81;100558.72;5023461;28;20076;-46
2022/07/26 08:02:41;;;;;;;4.47;1.73;;;;;;;20.04;56.33;100552.56;5020298;28;20064;-45
2022/07/26 08:05:08;;;;;;;5.97;1.58;;;;;;;20.26;55.19;100554.44;5015376;28;20049;-43
2022/07/26 08:07:41;;;;;;;6.15;1.60;;;;;;;20.41;54.86;100555.66;5018082;28;20049;-44
2022/07/26 08:10:08;;;;;;;5.60;2.03;;;;;;;20.51;54.53;100560.59;5017799;28;20539;-48
2022/07/26 08:12:35;;;;;;;5.55;1.80;;;;;;;20.73;54.33;100560.66;5023154;28;20899;-47
2022/07/26 08:15:03;;;;;;;1.55;1.45;;;;;;;20.93;54.30;100561.72;5015792;28;20045;-45
2022/07/26 08:17:34;;;;;;;3.28;2.10;;;;;;;21.05;53.54;100561.25;5016156;28;20053;-49
2022/07/26 08:20:08;;;;;;;3.78;1.35;;;;;;;21.07;53.19;100558.56;5022439;28;20063;-48
2022/07/26 08:22:41;;;;;;;3.65;1.75;;;;;;;21.04;52.35;100564.81;5012605;28;20068;-45
2022/07/26 08:25:08;;;;;;;3.22;1.67;;;;;;;20.97;52.19;100571.22;5017929;28;20409;-47
2022/07/26 08:27:35;;;;;;;3.70;1.88;;;;;;;21.01;52.08;100570.19;5021582;28;20060;-45
2022/07/26 08:30:07;;;;;;;2.05;1.30;;;;;;;21.08;51.83;100569.97;5021433;28;20069;-44
2022/07/26 08:32:34;;;;;;;3.05;1.83;;;;;;;21.10;51.70;100562.88;5023923;28;20050;-45
2022/07/26 08:35:01;;;;;;;5.22;2.08;;;;;;;21.07;50.96;100569.09;5019319;28;20050;-43
2022/07/26 08:37:45;;;;;;;8.23;2.70;;;;;;;21.09;51.89;100561.13;5045304;28;20041;-45
2022/07/26 08:40:11;;;;;;;3.08;1.45;;;;;;;21.08;50.88;100564.69;5043119;28;20061;-45
2022/07/26 08:42:38;;;;;;;6.60;1.85;;;;;;;21.09;51.26;100561.13;5040456;28;20092;-43
2022/07/26 08:45:05;;;;;;;4.15;1.73;;;;;;;21.16;50.72;100565.25;5054571;28;20505;-45
2022/07/26 08:47:32;;;;;;;3.97;2.15;;;;;;;21.19;51.11;100563.38;5044482;28;20467;-44
2022/07/26 08:50:06;;;;;;;4.45;1.65;;;;;;;21.20;50.43;100564.22;5041577;28;20064;-44
2022/07/26 08:52:33;;;;;;;4.00;1.63;;;;;;;21.20;50.59;100574.75;5041456;28;20137;-46
2022/07/26 08:55:00;;;;;;;2.15;1.88;;;;;;;21.40;50.89;100570.47;5040712;28;21059;-45
2022/07/26 08:57:26;;;;;;;7.88;0.90;;;;;;;21.68;49.43;100575.47;5039866;28;21449;-48
2022/07/26 09:02:52;;;;;;;3.92;0.88;;;;;;;22.04;49.14;100589.88;5022161;28;20414;-45
2022/07/26 09:05:24;;;;;;;4.43;1.10;;;;;;;22.11;49.24;100582.53;4980604;28;20059;-46
2022/07/26 09:07:51;;;;;;;6.07;0.90;;;;;;;22.11;48.38;100587.81;4995298;28;20058;-46
2022/07/26 09:10:18;;;;;;;4.50;0.93;;;;;;;22.01;48.58;100592.63;4993430;28;20101;-44
2022/07/26 09:12:44;;;;;;;5.20;0.90;;;;;;;21.96;48.23;100586.69;4992723;28;20043;-43
2022/07/26 09:15:21;;;;;;;3.92;1.00;;;;;;;21.92;47.86;100582.47;4992956;28;20053;-47
2022/07/26 09:17:52;;;;;;;3.13;0.82;;;;;;;21.96;48.42;100587.53;4991716;28;20564;-46
2022/07/26 09:23:12;;;;;;;5.07;0.68;;;;;;;22.05;47.85;100588.06;5047371;28;20395;-44
2022/07/26 09:25:40;;;;;;;;;;;;;;;22.03;48.24;100590.81;5032847;28;20510;-47
2022/07/26 09:28:26;;;;;;;4.57;1.08;;;;;;;22.21;47.83;100593.56;5046966;28;20375;-47
2022/07/26 09:30:57;;;;;;;2.58;0.43;;;;;;;22.54;48.37;100595.66;5052572;28;20055;-46
2022/07/26 09:33:24;;;;;;;4.20;1.23;;;;;;;22.70;46.98;100597.66;5052879;28;20091;-46
2022/07/26 09:36:05;;;;;;;3.50;0.70;;;;;;;22.78;46.70;100600.78;5055421;28;20542;-47
2022/07/26 09:38:50;;;;;;;3.78;0.50;;;;;;;22.85;46.14;100607.50;5058874;28;20041;-47
2022/07/26 09:41:23;;;;;;;2.22;0.80;;;;;;;22.86;45.65;100605.72;5059951;28;20095;-45
2022/07/26 09:43:50;;;;;;;2.33;0.77;;;;;;;22.91;46.87;100602.88;5056097;28;20048;-46
2022/07/26 09:46:21;;;;;;;4.45;0.80;;;;;;;22.98;46.33;100609.59;5060362;28;20139;-45
2022/07/26 09:48:48;;;;;;;4.43;0.70;;;;;;;23.04;45.66;100609.31;5055636;28;20140;-47
2022/07/26 09:51:38;;;;;;;5.85;0.98;;;;;;;23.07;45.44;100617.06;5058457;28;20141;-48
2022/07/26 09:54:05;;;;;;;3.17;0.60;;;;;;;23.11;45.93;100612.53;5062479;28;20052;-48
2022/07/26 09:56:52;;;;;;;3.67;1.40;;;;;;;23.15;45.71;100621.16;5057666;28;20374;-45
2022/07/26 09:59:21;;;;;;;3.35;0.80;;;;;;;23.14;45.23;100615.03;5059343;28;20045;-47
2022/07/26 10:01:50;;;;;;;5.70;1.20;;;;;;;23.22;45.15;100622.56;5061058;28;20048;-47
2022/07/26 10:04:18;;;;;;;4.10;0.98;;;;;;;23.18;44.54;100616.59;5061849;28;20725;-46
2022/07/26 10:06:45;;;;;;;4.00;0.70;;;;;;;23.25;45.50;100614.50;5057064;28;20481;-46
2022/07/26 10:09:12;;;;;;;2.67;0.50;;;;;;;23.33;45.45;100620.28;5059473;28;20043;-45
2022/07/26 10:11:44;;;;;;;5.03;0.77;;;;;;;23.39;44.17;100623.59;5058354;28;20060;-44
2022/07/26 10:20:07;;;;;;;5.03;0.88;;;;;;;23.42;44.50;100634.03;5056673;28;20803;-45
2022/07/26 10:22:46;;;;;;;2.95;0.70;;;;;;;23.46;44.49;100623.22;5039565;28;20512;-44
2022/07/26 10:27:54;;;;;;;4.53;0.63;;;;;;;23.47;44.51;100621.47;5025675;27;20410;-44
2022/07/26 10:40:56;;;;;;;4.30;1.10;;;;;;;23.29;43.86;100633.72;5053809;28;20391;-45
2022/07/26 10:43:24;;;;;;;3.83;1.15;;;;;;;23.18;44.62;100631.56;5040981;28;20054;-50
2022/07/26 10:51:35;;;;;;;3.83;2.38;;;;;;;23.00;44.31;100634.13;5017429;28;20407;-47
2022/07/26 10:54:05;;;;;;;6.53;1.88;;;;;;;22.95;43.52;100630.84;4999967;28;20054;-46
2022/07/26 10:56:32;;;;;;;4.45;2.63;;;;;;;22.88;44.44;100634.69;4993747;28;20077;-47
2022/07/26 10:59:01;;;;;;;2.97;2.22;;;;;;;22.78;44.60;100629.84;4993986;28;20510;-45
2022/07/26 11:01:33;;;;;;;3.80;2.55;;;;;;;22.75;44.32;100629.09;4999034;28;20046;-46
2022/07/26 11:04:00;;;;;;;5.35;2.22;;;;;;;22.66;44.73;100623.31;4999285;28;20494;-44
2022/07/26 11:06:28;;;;;;;4.78;2.25;;;;;;;22.62;44.83;100634.09;4994387;28;20058;-47
2022/07/26 11:08:55;;;;;;;3.80;2.13;;;;;;;22.66;44.95;100635.66;5002676;28;20050;-45
2022/07/26 11:11:32;;;;;;;4.00;2.38;;;;;;;22.70;45.26;100637.25;5004827;28;20100;-45
2022/07/26 11:14:15;;;;;;;3.63;2.13;;;;;;;22.60;44.33;100642.91;5032331;28;20057;-43
2022/07/26 11:16:46;;;;;;;6.18;2.22;;;;;;;22.48;44.77;100638.16;5003277;28;20081;-46
2022/07/26 11:19:16;;;;;;;3.30;1.48;;;;;;;22.43;45.17;100640.13;4990168;28;20062;-46
2022/07/26 11:21:45;;;;;;;4.50;2.42;;;;;;;22.32;44.95;100644.09;4996313;28;20057;-45
2022/07/26 11:24:12;;;;;;;5.70;2.80;;;;;;;22.29;45.16;100648.66;5003196;28;20046;-50
2022/07/26 11:26:42;;;;;;;3.88;1.65;;;;;;;22.21;45.56;100646.31;4997548;28;20049;-47
2022/07/26 11:29:09;;;;;;;3.15;1.92;;;;;;;22.11;45.87;100642.34;4995156;28;20049;-45
2022/07/26 11:31:44;;;;;;;4.32;2.67;;;;;;;22.03;46.03;100651.47;5002488;28;20046;-48
2022/07/26 11:34:25;;;;;;;;;;;;;;;21.73;45.69;100642.97;5000554;28;20039;-47
2022/07/26 11:36:54;;;;;;;3.92;2.28;;;;;;;21.85;45.59;100644.28;5003173;28;19932;-48
2022/07/26 11:39:32;;;;;;;5.40;2.58;;;;;;;21.85;46.03;100639.03;4984235;28;20058;-44
2022/07/26 11:44:35;;;;;;;2.75;1.00;;;;;;;21.98;46.02;100648.13;5100840;27;20375;-47
2022/07/26 11:47:12;;;;;;;5.22;1.33;;;;;;;21.96;46.13;100647.34;5079954;28;20677;-47
2022/07/26 11:49:39;;;;;;;4.95;1.30;;;;;;;22.03;46.21;100646.19;5083916;28;20052;-46
2022/07/26 11:52:30;;;;;;;3.88;1.40;;;;;;;22.14;46.28;100631.66;5079878;28;20674;-49
2022/07/26 11:54:58;;;;;;;3.20;1.20;;;;;;;22.19;45.50;100635.00;5081900;28;20431;-45
2022/07/26 11:57:30;;;;;;;3.45;1.17;;;;;;;22.26;46.66;100633.78;5081095;28;20102;-43
2022/07/26 11:59:59;;;;;;;4.30;1.23;;;;;;;22.33;46.16;100629.13;5081736;28;20165;-45
2022/07/26 12:02:27;;;;;;;4.07;1.13;;;;;;;22.32;46.17;100641.44;5077465;28;20056;-47
2022/07/26 12:05:15;;;;;;;4.13;1.00;;;;;;;22.14;45.62;100636.94;5083026;28;20047;-46
2022/07/26 12:08:02;;;;;;;2.15;0.70;;;;;;;22.02;45.49;100644.44;5083615;28;20113;-45